sensor_id;sensor_type;location;lat;lon;timestamp;P1;durP1;ratioP1;P2;durP2;ratioP2
33830;SDS011;20137;48.834;8.732;2023-04-25T00:01:14;5.57;;;3.97;;
33830;SDS011;20137;48.834;8.732;2023-04-25T00:03:40;6.80;;;3.83;;
33830;SDS011;20137;48.834;8.732;2023-04-25T00:06:06;6.15;;;3.75;;
33830;SDS011;20137;48.834;8.732;2023-04-25T00:08:32;5.38;;;3.88;;
33830;SDS011;20137;48.834;8.732;2023-04-25T00:10:58;5.70;;;4.15;;
33830;SDS011;20137;48.834;8.732;2023-04-25T00:13:26;8.05;;;4.30;;
33830;SDS011;20137;48.834;8.732;2023-04-25T00:15:52;6.43;;;3.95;;
33830;SDS011;20137;48.834;8.732;2023-04-25T00:18:18;6.40;;;4.18;;
33830;SDS011;20137;48.834;8.732;2023-04-25T00:20:45;7.25;;;4.53;;
33830;SDS011;20137;48.834;8.732;2023-04-25T00:23:14;8.82;;;5.03;;
33830;SDS011;20137;48.834;8.732;2023-04-25T00:25:43;6.43;;;3.90;;
33830;SDS011;20137;48.834;8.732;2023-04-25T00:28:10;6.95;;;4.40;;
33830;SDS011;20137;48.834;8.732;2023-04-25T00:30:36;7.60;;;4.43;;
33830;SDS011;20137;48.834;8.732;2023-04-25T00:33:03;6.15;;;4.32;;
33830;SDS011;20137;48.834;8.732;2023-04-25T00:35:29;7.88;;;4.40;;
33830;SDS011;20137;48.834;8.732;2023-04-25T00:37:54;7.47;;;4.35;;
33830;SDS011;20137;48.834;8.732;2023-04-25T00:40:20;7.47;;;4.28;;
33830;SDS011;20137;48.834;8.732;2023-04-25T00:42:47;9.68;;;5.03;;
33830;SDS011;20137;48.834;8.732;2023-04-25T00:45:13;7.60;;;4.03;;
33830;SDS011;20137;48.834;8.732;2023-04-25T00:47:40;4.78;;;3.42;;
33830;SDS011;20137;48.834;8.732;2023-04-25T00:50:07;10.10;;;3.65;;
33830;SDS011;20137;48.834;8.732;2023-04-25T00:52:33;5.38;;;3.35;;
33830;SDS011;20137;48.834;8.732;2023-04-25T00:54:59;4.82;;;3.00;;
33830;SDS011;20137;48.834;8.732;2023-04-25T00:57:25;5.00;;;2.55;;
33830;SDS011;20137;48.834;8.732;2023-04-25T00:59:51;8.35;;;3.38;;
33830;SDS011;20137;48.834;8.732;2023-04-25T01:02:19;4.15;;;2.60;;
33830;SDS011;20137;48.834;8.732;2023-04-25T01:04:45;6.35;;;2.63;;
33830;SDS011;20137;48.834;8.732;2023-04-25T01:07:12;4.40;;;2.38;;
33830;SDS011;20137;48.834;8.732;2023-04-25T01:09:38;6.28;;;2.97;;
33830;SDS011;20137;48.834;8.732;2023-04-25T01:12:04;3.20;;;2.70;;
33830;SDS011;20137;48.834;8.732;2023-04-25T01:14:30;7.13;;;3.13;;
33830;SDS011;20137;48.834;8.732;2023-04-25T01:16:56;4.47;;;2.92;;
33830;SDS011;20137;48.834;8.732;2023-04-25T01:19:23;4.00;;;3.13;;
33830;SDS011;20137;48.834;8.732;2023-04-25T01:21:49;8.07;;;3.00;;
33830;SDS011;20137;48.834;8.732;2023-04-25T01:24:16;5.53;;;3.28;;
33830;SDS011;20137;48.834;8.732;2023-04-25T01:26:42;6.35;;;3.30;;
33830;SDS011;20137;48.834;8.732;2023-04-25T01:29:15;5.70;;;3.17;;
33830;SDS011;20137;48.834;8.732;2023-04-25T01:31:42;6.13;;;2.92;;
33830;SDS011;20137;48.834;8.732;2023-04-25T01:34:09;7.45;;;3.30;;
33830;SDS011;20137;48.834;8.732;2023-04-25T01:36:36;5.63;;;3.10;;
33830;SDS011;20137;48.834;8.732;2023-04-25T01:39:01;6.50;;;3.25;;
33830;SDS011;20137;48.834;8.732;2023-04-25T01:41:28;3.90;;;2.85;;
33830;SDS011;20137;48.834;8.732;2023-04-25T01:43:54;5.95;;;3.00;;
33830;SDS011;20137;48.834;8.732;2023-04-25T01:46:19;5.50;;;3.13;;
33830;SDS011;20137;48.834;8.732;2023-04-25T01:48:45;4.63;;;3.58;;
33830;SDS011;20137;48.834;8.732;2023-04-25T01:51:11;8.20;;;3.70;;
33830;SDS011;20137;48.834;8.732;2023-04-25T01:53:37;7.28;;;3.65;;
33830;SDS011;20137;48.834;8.732;2023-04-25T01:56:04;4.82;;;3.65;;
33830;SDS011;20137;48.834;8.732;2023-04-25T01:58:30;6.03;;;4.00;;
33830;SDS011;20137;48.834;8.732;2023-04-25T02:00:56;6.80;;;4.55;;
33830;SDS011;20137;48.834;8.732;2023-04-25T02:03:22;9.88;;;4.20;;
33830;SDS011;20137;48.834;8.732;2023-04-25T02:05:47;5.80;;;4.32;;
33830;SDS011;20137;48.834;8.732;2023-04-25T02:08:13;6.40;;;4.38;;
33830;SDS011;20137;48.834;8.732;2023-04-25T02:10:39;6.97;;;4.68;;
33830;SDS011;20137;48.834;8.732;2023-04-25T02:13:05;8.45;;;4.88;;
33830;SDS011;20137;48.834;8.732;2023-04-25T02:15:31;7.10;;;4.63;;
33830;SDS011;20137;48.834;8.732;2023-04-25T02:17:56;5.72;;;4.40;;
33830;SDS011;20137;48.834;8.732;2023-04-25T02:20:23;10.07;;;5.00;;
33830;SDS011;20137;48.834;8.732;2023-04-25T02:22:49;10.45;;;5.70;;
33830;SDS011;20137;48.834;8.732;2023-04-25T02:25:15;7.07;;;5.22;;
33830;SDS011;20137;48.834;8.732;2023-04-25T02:27:42;8.63;;;5.10;;
33830;SDS011;20137;48.834;8.732;2023-04-25T02:30:08;6.93;;;5.50;;
33830;SDS011;20137;48.834;8.732;2023-04-25T02:32:34;6.65;;;4.68;;
33830;SDS011;20137;48.834;8.732;2023-04-25T02:35:01;8.98;;;6.10;;
33830;SDS011;20137;48.834;8.732;2023-04-25T02:37:30;10.40;;;5.80;;
33830;SDS011;20137;48.834;8.732;2023-04-25T02:39:56;11.18;;;7.65;;
33830;SDS011;20137;48.834;8.732;2023-04-25T02:42:22;12.70;;;7.00;;
33830;SDS011;20137;48.834;8.732;2023-04-25T02:44:48;10.82;;;7.13;;
33830;SDS011;20137;48.834;8.732;2023-04-25T02:47:13;12.65;;;7.20;;
33830;SDS011;20137;48.834;8.732;2023-04-25T02:49:39;9.68;;;7.85;;
33830;SDS011;20137;48.834;8.732;2023-04-25T02:52:05;13.25;;;7.72;;
33830;SDS011;20137;48.834;8.732;2023-04-25T02:54:31;12.35;;;7.10;;
33830;SDS011;20137;48.834;8.732;2023-04-25T02:56:57;11.32;;;7.57;;
33830;SDS011;20137;48.834;8.732;2023-04-25T02:59:22;16.52;;;8.85;;
33830;SDS011;20137;48.834;8.732;2023-04-25T03:01:48;13.77;;;8.13;;
33830;SDS011;20137;48.834;8.732;2023-04-25T03:04:14;11.20;;;7.40;;
33830;SDS011;20137;48.834;8.732;2023-04-25T03:06:39;15.45;;;8.52;;
33830;SDS011;20137;48.834;8.732;2023-04-25T03:09:05;10.93;;;7.60;;
33830;SDS011;20137;48.834;8.732;2023-04-25T03:11:31;14.75;;;7.72;;
33830;SDS011;20137;48.834;8.732;2023-04-25T03:13:57;15.57;;;8.20;;
33830;SDS011;20137;48.834;8.732;2023-04-25T03:16:23;13.43;;;7.78;;
33830;SDS011;20137;48.834;8.732;2023-04-25T03:18:48;12.15;;;8.02;;
33830;SDS011;20137;48.834;8.732;2023-04-25T03:21:15;12.13;;;7.63;;
33830;SDS011;20137;48.834;8.732;2023-04-25T03:23:41;9.75;;;6.25;;
33830;SDS011;20137;48.834;8.732;2023-04-25T03:26:07;10.52;;;7.38;;
33830;SDS011;20137;48.834;8.732;2023-04-25T03:28:33;9.07;;;6.93;;
33830;SDS011;20137;48.834;8.732;2023-04-25T03:30:58;12.60;;;8.13;;
33830;SDS011;20137;48.834;8.732;2023-04-25T03:33:24;9.93;;;7.13;;
33830;SDS011;20137;48.834;8.732;2023-04-25T03:35:50;9.70;;;7.07;;
33830;SDS011;20137;48.834;8.732;2023-04-25T03:38:16;12.52;;;7.47;;
33830;SDS011;20137;48.834;8.732;2023-04-25T03:40:42;9.75;;;7.25;;
33830;SDS011;20137;48.834;8.732;2023-04-25T03:43:08;11.48;;;6.72;;
33830;SDS011;20137;48.834;8.732;2023-04-25T03:45:33;11.52;;;6.72;;
33830;SDS011;20137;48.834;8.732;2023-04-25T03:47:59;11.48;;;7.43;;
33830;SDS011;20137;48.834;8.732;2023-04-25T03:50:25;9.57;;;7.13;;
33830;SDS011;20137;48.834;8.732;2023-04-25T03:52:50;9.32;;;6.70;;
33830;SDS011;20137;48.834;8.732;2023-04-25T03:55:16;8.85;;;5.97;;
33830;SDS011;20137;48.834;8.732;2023-04-25T03:57:42;8.27;;;5.93;;
33830;SDS011;20137;48.834;8.732;2023-04-25T04:00:07;11.13;;;6.90;;
33830;SDS011;20137;48.834;8.732;2023-04-25T04:02:34;12.98;;;6.47;;
33830;SDS011;20137;48.834;8.732;2023-04-25T04:05:01;18.63;;;7.32;;
33830;SDS011;20137;48.834;8.732;2023-04-25T04:07:27;11.57;;;6.55;;
33830;SDS011;20137;48.834;8.732;2023-04-25T04:09:53;12.65;;;6.55;;
33830;SDS011;20137;48.834;8.732;2023-04-25T04:12:18;11.68;;;6.45;;
33830;SDS011;20137;48.834;8.732;2023-04-25T04:14:44;11.95;;;6.93;;
33830;SDS011;20137;48.834;8.732;2023-04-25T04:17:10;8.55;;;5.95;;
33830;SDS011;20137;48.834;8.732;2023-04-25T04:19:36;8.73;;;6.10;;
33830;SDS011;20137;48.834;8.732;2023-04-25T04:22:01;11.20;;;5.78;;
33830;SDS011;20137;48.834;8.732;2023-04-25T04:24:27;8.85;;;6.25;;
33830;SDS011;20137;48.834;8.732;2023-04-25T04:26:53;6.72;;;5.07;;
33830;SDS011;20137;48.834;8.732;2023-04-25T04:29:18;6.82;;;4.82;;
33830;SDS011;20137;48.834;8.732;2023-04-25T04:31:49;10.13;;;5.55;;
33830;SDS011;20137;48.834;8.732;2023-04-25T04:34:19;9.98;;;5.50;;
33830;SDS011;20137;48.834;8.732;2023-04-25T04:36:44;7.28;;;4.97;;
33830;SDS011;20137;48.834;8.732;2023-04-25T04:39:13;8.55;;;5.03;;
33830;SDS011;20137;48.834;8.732;2023-04-25T04:41:39;8.05;;;4.93;;
33830;SDS011;20137;48.834;8.732;2023-04-25T04:44:05;10.38;;;5.05;;
33830;SDS011;20137;48.834;8.732;2023-04-25T04:46:32;7.72;;;5.13;;
33830;SDS011;20137;48.834;8.732;2023-04-25T04:49:04;8.90;;;4.80;;
33830;SDS011;20137;48.834;8.732;2023-04-25T04:51:30;7.55;;;4.57;;
33830;SDS011;20137;48.834;8.732;2023-04-25T04:53:56;7.50;;;5.20;;
33830;SDS011;20137;48.834;8.732;2023-04-25T04:56:23;7.80;;;4.28;;
33830;SDS011;20137;48.834;8.732;2023-04-25T04:58:50;9.40;;;4.60;;
33830;SDS011;20137;48.834;8.732;2023-04-25T05:01:16;7.45;;;4.65;;
33830;SDS011;20137;48.834;8.732;2023-04-25T05:03:41;7.72;;;5.00;;
33830;SDS011;20137;48.834;8.732;2023-04-25T05:06:07;5.70;;;4.32;;
33830;SDS011;20137;48.834;8.732;2023-04-25T05:08:33;7.82;;;5.05;;
33830;SDS011;20137;48.834;8.732;2023-04-25T05:10:59;8.25;;;4.80;;
33830;SDS011;20137;48.834;8.732;2023-04-25T05:13:25;10.30;;;6.78;;
33830;SDS011;20137;48.834;8.732;2023-04-25T05:15:50;9.82;;;6.45;;
33830;SDS011;20137;48.834;8.732;2023-04-25T05:18:16;8.88;;;5.80;;
33830;SDS011;20137;48.834;8.732;2023-04-25T05:20:41;10.95;;;5.50;;
33830;SDS011;20137;48.834;8.732;2023-04-25T05:23:07;10.25;;;6.20;;
33830;SDS011;20137;48.834;8.732;2023-04-25T05:25:33;10.52;;;5.32;;
33830;SDS011;20137;48.834;8.732;2023-04-25T05:27:58;7.60;;;5.35;;
33830;SDS011;20137;48.834;8.732;2023-04-25T05:30:24;10.40;;;5.35;;
33830;SDS011;20137;48.834;8.732;2023-04-25T05:32:50;7.90;;;5.20;;
33830;SDS011;20137;48.834;8.732;2023-04-25T05:35:16;8.68;;;4.63;;
33830;SDS011;20137;48.834;8.732;2023-04-25T05:37:41;6.57;;;4.85;;
33830;SDS011;20137;48.834;8.732;2023-04-25T05:40:07;8.10;;;5.00;;
33830;SDS011;20137;48.834;8.732;2023-04-25T05:42:33;6.85;;;4.10;;
33830;SDS011;20137;48.834;8.732;2023-04-25T05:44:59;10.25;;;4.25;;
33830;SDS011;20137;48.834;8.732;2023-04-25T05:47:25;6.60;;;3.70;;
33830;SDS011;20137;48.834;8.732;2023-04-25T05:49:51;7.13;;;4.45;;
33830;SDS011;20137;48.834;8.732;2023-04-25T05:52:17;5.60;;;4.20;;
33830;SDS011;20137;48.834;8.732;2023-04-25T05:54:43;6.13;;;4.53;;
33830;SDS011;20137;48.834;8.732;2023-04-25T05:57:17;6.78;;;4.63;;
33830;SDS011;20137;48.834;8.732;2023-04-25T05:59:47;7.55;;;4.35;;
33830;SDS011;20137;48.834;8.732;2023-04-25T06:02:13;8.77;;;4.90;;
33830;SDS011;20137;48.834;8.732;2023-04-25T06:04:39;11.90;;;5.45;;
33830;SDS011;20137;48.834;8.732;2023-04-25T06:07:05;8.13;;;4.90;;
33830;SDS011;20137;48.834;8.732;2023-04-25T06:09:30;7.57;;;4.60;;
33830;SDS011;20137;48.834;8.732;2023-04-25T06:11:56;7.03;;;5.32;;
33830;SDS011;20137;48.834;8.732;2023-04-25T06:14:21;7.03;;;5.00;;
33830;SDS011;20137;48.834;8.732;2023-04-25T06:16:47;6.60;;;4.68;;
33830;SDS011;20137;48.834;8.732;2023-04-25T06:19:13;6.22;;;3.75;;
33830;SDS011;20137;48.834;8.732;2023-04-25T06:21:38;6.35;;;4.78;;
33830;SDS011;20137;48.834;8.732;2023-04-25T06:24:04;7.28;;;4.15;;
33830;SDS011;20137;48.834;8.732;2023-04-25T06:26:30;6.80;;;4.40;;
33830;SDS011;20137;48.834;8.732;2023-04-25T06:28:55;8.20;;;4.55;;
33830;SDS011;20137;48.834;8.732;2023-04-25T06:31:21;7.47;;;4.93;;
33830;SDS011;20137;48.834;8.732;2023-04-25T06:33:46;7.57;;;4.65;;
33830;SDS011;20137;48.834;8.732;2023-04-25T06:36:13;6.88;;;4.50;;
33830;SDS011;20137;48.834;8.732;2023-04-25T06:38:39;8.57;;;4.80;;
33830;SDS011;20137;48.834;8.732;2023-04-25T06:41:05;9.32;;;4.90;;
33830;SDS011;20137;48.834;8.732;2023-04-25T06:43:31;7.90;;;5.43;;
33830;SDS011;20137;48.834;8.732;2023-04-25T06:45:58;4.90;;;4.15;;
33830;SDS011;20137;48.834;8.732;2023-04-25T06:48:26;7.20;;;5.13;;
33830;SDS011;20137;48.834;8.732;2023-04-25T06:50:52;7.13;;;4.00;;
33830;SDS011;20137;48.834;8.732;2023-04-25T06:53:19;7.32;;;4.97;;
33830;SDS011;20137;48.834;8.732;2023-04-25T06:55:45;5.32;;;3.85;;
33830;SDS011;20137;48.834;8.732;2023-04-25T06:58:10;6.80;;;4.13;;
33830;SDS011;20137;48.834;8.732;2023-04-25T07:00:36;6.40;;;4.75;;
33830;SDS011;20137;48.834;8.732;2023-04-25T07:03:01;7.80;;;4.32;;
33830;SDS011;20137;48.834;8.732;2023-04-25T07:05:27;5.88;;;3.83;;
33830;SDS011;20137;48.834;8.732;2023-04-25T07:07:53;5.05;;;3.78;;
33830;SDS011;20137;48.834;8.732;2023-04-25T07:10:19;6.05;;;3.70;;
33830;SDS011;20137;48.834;8.732;2023-04-25T07:12:46;6.43;;;3.72;;
33830;SDS011;20137;48.834;8.732;2023-04-25T07:15:12;5.05;;;4.10;;
33830;SDS011;20137;48.834;8.732;2023-04-25T07:17:37;5.82;;;4.38;;
33830;SDS011;20137;48.834;8.732;2023-04-25T07:20:04;7.82;;;4.18;;
33830;SDS011;20137;48.834;8.732;2023-04-25T07:22:31;7.45;;;4.45;;
33830;SDS011;20137;48.834;8.732;2023-04-25T07:24:57;7.40;;;4.85;;
33830;SDS011;20137;48.834;8.732;2023-04-25T07:27:23;6.25;;;4.88;;
33830;SDS011;20137;48.834;8.732;2023-04-25T07:29:48;6.72;;;4.45;;
33830;SDS011;20137;48.834;8.732;2023-04-25T07:32:14;6.97;;;4.45;;
33830;SDS011;20137;48.834;8.732;2023-04-25T07:34:39;8.23;;;4.40;;
33830;SDS011;20137;48.834;8.732;2023-04-25T07:37:06;5.50;;;4.50;;
33830;SDS011;20137;48.834;8.732;2023-04-25T07:39:32;7.75;;;5.30;;
33830;SDS011;20137;48.834;8.732;2023-04-25T07:41:58;5.53;;;4.25;;
33830;SDS011;20137;48.834;8.732;2023-04-25T07:44:23;8.13;;;4.75;;
33830;SDS011;20137;48.834;8.732;2023-04-25T07:46:50;9.27;;;5.18;;
33830;SDS011;20137;48.834;8.732;2023-04-25T07:49:16;8.55;;;5.10;;
33830;SDS011;20137;48.834;8.732;2023-04-25T07:51:42;7.03;;;4.82;;
33830;SDS011;20137;48.834;8.732;2023-04-25T07:54:12;7.25;;;4.72;;
33830;SDS011;20137;48.834;8.732;2023-04-25T07:56:39;6.80;;;4.85;;
33830;SDS011;20137;48.834;8.732;2023-04-25T07:59:04;8.38;;;4.90;;
33830;SDS011;20137;48.834;8.732;2023-04-25T08:01:30;6.68;;;4.80;;
33830;SDS011;20137;48.834;8.732;2023-04-25T08:03:56;7.10;;;4.93;;
33830;SDS011;20137;48.834;8.732;2023-04-25T08:06:21;7.25;;;5.38;;
33830;SDS011;20137;48.834;8.732;2023-04-25T08:08:47;9.30;;;5.25;;
33830;SDS011;20137;48.834;8.732;2023-04-25T08:11:13;8.55;;;5.07;;
33830;SDS011;20137;48.834;8.732;2023-04-25T08:13:39;5.75;;;4.38;;
33830;SDS011;20137;48.834;8.732;2023-04-25T08:16:04;7.63;;;4.97;;
33830;SDS011;20137;48.834;8.732;2023-04-25T08:18:30;6.13;;;4.47;;
33830;SDS011;20137;48.834;8.732;2023-04-25T08:20:56;6.45;;;4.22;;
33830;SDS011;20137;48.834;8.732;2023-04-25T08:23:22;7.70;;;4.57;;
33830;SDS011;20137;48.834;8.732;2023-04-25T08:25:48;7.85;;;4.35;;
33830;SDS011;20137;48.834;8.732;2023-04-25T08:28:14;5.38;;;3.78;;
33830;SDS011;20137;48.834;8.732;2023-04-25T08:30:40;4.97;;;4.20;;
33830;SDS011;20137;48.834;8.732;2023-04-25T08:33:05;6.45;;;3.90;;
33830;SDS011;20137;48.834;8.732;2023-04-25T08:35:31;4.95;;;4.20;;
33830;SDS011;20137;48.834;8.732;2023-04-25T08:37:58;5.82;;;4.30;;
33830;SDS011;20137;48.834;8.732;2023-04-25T08:40:24;7.05;;;4.05;;
33830;SDS011;20137;48.834;8.732;2023-04-25T08:42:55;5.70;;;3.25;;
33830;SDS011;20137;48.834;8.732;2023-04-25T08:45:22;3.28;;;2.42;;
33830;SDS011;20137;48.834;8.732;2023-04-25T08:47:48;3.17;;;2.10;;
33830;SDS011;20137;48.834;8.732;2023-04-25T08:50:17;6.43;;;3.05;;
33830;SDS011;20137;48.834;8.732;2023-04-25T08:52:46;3.40;;;2.78;;
33830;SDS011;20137;48.834;8.732;2023-04-25T08:55:14;4.68;;;2.50;;
33830;SDS011;20137;48.834;8.732;2023-04-25T08:57:41;2.85;;;2.30;;
33830;SDS011;20137;48.834;8.732;2023-04-25T09:00:08;3.05;;;2.45;;
33830;SDS011;20137;48.834;8.732;2023-04-25T09:02:35;4.53;;;2.75;;
33830;SDS011;20137;48.834;8.732;2023-04-25T09:05:01;3.47;;;2.78;;
33830;SDS011;20137;48.834;8.732;2023-04-25T09:07:29;2.67;;;1.92;;
33830;SDS011;20137;48.834;8.732;2023-04-25T09:09:55;2.90;;;1.95;;
33830;SDS011;20137;48.834;8.732;2023-04-25T09:12:20;2.17;;;1.73;;
33830;SDS011;20137;48.834;8.732;2023-04-25T09:15:04;2.85;;;1.77;;
33830;SDS011;20137;48.834;8.732;2023-04-25T09:17:31;2.85;;;1.95;;
33830;SDS011;20137;48.834;8.732;2023-04-25T09:20:07;2.97;;;2.33;;
33830;SDS011;20137;48.834;8.732;2023-04-25T09:22:37;2.33;;;2.08;;
33830;SDS011;20137;48.834;8.732;2023-04-25T09:25:10;2.00;;;1.80;;
33830;SDS011;20137;48.834;8.732;2023-04-25T09:27:37;3.22;;;1.88;;
33830;SDS011;20137;48.834;8.732;2023-04-25T09:30:29;2.72;;;1.80;;
33830;SDS011;20137;48.834;8.732;2023-04-25T09:32:57;2.15;;;1.75;;
33830;SDS011;20137;48.834;8.732;2023-04-25T09:35:28;6.97;;;2.30;;
33830;SDS011;20137;48.834;8.732;2023-04-25T09:37:55;3.72;;;2.17;;
33830;SDS011;20137;48.834;8.732;2023-04-25T09:40:21;2.75;;;1.95;;
33830;SDS011;20137;48.834;8.732;2023-04-25T09:42:46;2.25;;;1.80;;
33830;SDS011;20137;48.834;8.732;2023-04-25T09:45:12;2.17;;;1.63;;
33830;SDS011;20137;48.834;8.732;2023-04-25T09:47:40;3.05;;;1.60;;
33830;SDS011;20137;48.834;8.732;2023-04-25T09:50:15;2.88;;;1.58;;
33830;SDS011;20137;48.834;8.732;2023-04-25T09:52:42;2.15;;;1.77;;
33830;SDS011;20137;48.834;8.732;2023-04-25T09:55:08;2.22;;;1.52;;
33830;SDS011;20137;48.834;8.732;2023-04-25T09:57:34;2.97;;;1.98;;
33830;SDS011;20137;48.834;8.732;2023-04-25T10:00:04;2.00;;;1.58;;
33830;SDS011;20137;48.834;8.732;2023-04-25T10:02:34;1.25;;;1.15;;
33830;SDS011;20137;48.834;8.732;2023-04-25T10:05:05;1.52;;;0.98;;
33830;SDS011;20137;48.834;8.732;2023-04-25T10:07:32;1.10;;;0.70;;
33830;SDS011;20137;48.834;8.732;2023-04-25T10:10:03;0.80;;;0.80;;
33830;SDS011;20137;48.834;8.732;2023-04-25T10:12:29;1.10;;;1.00;;
33830;SDS011;20137;48.834;8.732;2023-04-25T10:14:59;0.65;;;0.57;;
33830;SDS011;20137;48.834;8.732;2023-04-25T10:17:28;0.60;;;0.57;;
33830;SDS011;20137;48.834;8.732;2023-04-25T10:19:54;0.68;;;0.68;;
33830;SDS011;20137;48.834;8.732;2023-04-25T10:22:23;0.77;;;0.77;;
33830;SDS011;20137;48.834;8.732;2023-04-25T10:24:55;0.60;;;0.60;;
33830;SDS011;20137;48.834;8.732;2023-04-25T10:27:21;0.52;;;0.50;;
33830;SDS011;20137;48.834;8.732;2023-04-25T10:30:04;3.30;;;2.60;;
33830;SDS011;20137;48.834;8.732;2023-04-25T10:32:35;3.55;;;2.70;;
33830;SDS011;20137;48.834;8.732;2023-04-25T10:35:13;3.90;;;2.90;;
33830;SDS011;20137;48.834;8.732;2023-04-25T10:40:41;3.90;;;3.20;;
33830;SDS011;20137;48.834;8.732;2023-04-25T10:45:56;7.38;;;4.95;;
33830;SDS011;20137;48.834;8.732;2023-04-25T10:48:25;9.75;;;6.57;;
33830;SDS011;20137;48.834;8.732;2023-04-25T10:51:10;8.98;;;6.13;;
33830;SDS011;20137;48.834;8.732;2023-04-25T10:53:37;10.70;;;7.43;;
33830;SDS011;20137;48.834;8.732;2023-04-25T10:56:09;11.60;;;7.72;;
33830;SDS011;20137;48.834;8.732;2023-04-25T10:58:42;14.20;;;8.88;;
33830;SDS011;20137;48.834;8.732;2023-04-25T11:01:09;12.63;;;8.43;;
33830;SDS011;20137;48.834;8.732;2023-04-25T11:03:40;17.17;;;9.25;;
33830;SDS011;20137;48.834;8.732;2023-04-25T11:06:08;11.65;;;7.43;;
33830;SDS011;20137;48.834;8.732;2023-04-25T11:08:56;9.57;;;6.40;;
33830;SDS011;20137;48.834;8.732;2023-04-25T11:11:25;7.90;;;5.38;;
33830;SDS011;20137;48.834;8.732;2023-04-25T11:13:51;9.27;;;6.03;;
33830;SDS011;20137;48.834;8.732;2023-04-25T11:16:17;8.43;;;4.72;;
33830;SDS011;20137;48.834;8.732;2023-04-25T11:18:43;8.65;;;5.10;;
33830;SDS011;20137;48.834;8.732;2023-04-25T11:21:09;8.30;;;5.40;;
33830;SDS011;20137;48.834;8.732;2023-04-25T11:23:36;7.88;;;5.07;;
33830;SDS011;20137;48.834;8.732;2023-04-25T11:26:02;7.90;;;5.00;;
33830;SDS011;20137;48.834;8.732;2023-04-25T11:28:28;7.60;;;4.70;;
33830;SDS011;20137;48.834;8.732;2023-04-25T11:30:54;5.70;;;4.20;;
33830;SDS011;20137;48.834;8.732;2023-04-25T11:33:24;6.15;;;3.80;;
33830;SDS011;20137;48.834;8.732;2023-04-25T11:35:52;5.25;;;2.95;;
33830;SDS011;20137;48.834;8.732;2023-04-25T11:38:20;4.45;;;2.60;;
33830;SDS011;20137;48.834;8.732;2023-04-25T11:40:49;8.82;;;3.53;;
33830;SDS011;20137;48.834;8.732;2023-04-25T11:43:17;5.38;;;4.00;;
33830;SDS011;20137;48.834;8.732;2023-04-25T11:45:51;6.20;;;4.10;;
33830;SDS011;20137;48.834;8.732;2023-04-25T11:48:17;7.07;;;4.40;;
33830;SDS011;20137;48.834;8.732;2023-04-25T11:50:44;4.13;;;3.22;;
33830;SDS011;20137;48.834;8.732;2023-04-25T11:53:10;5.20;;;3.00;;
33830;SDS011;20137;48.834;8.732;2023-04-25T11:55:36;2.30;;;2.00;;
33830;SDS011;20137;48.834;8.732;2023-04-25T11:58:02;2.67;;;2.08;;
33830;SDS011;20137;48.834;8.732;2023-04-25T12:00:29;3.90;;;2.20;;
33830;SDS011;20137;48.834;8.732;2023-04-25T12:02:56;3.50;;;2.20;;
33830;SDS011;20137;48.834;8.732;2023-04-25T12:05:28;2.28;;;1.55;;
33830;SDS011;20137;48.834;8.732;2023-04-25T12:07:55;2.53;;;1.65;;
33830;SDS011;20137;48.834;8.732;2023-04-25T12:10:21;2.65;;;1.80;;
33830;SDS011;20137;48.834;8.732;2023-04-25T12:12:49;2.22;;;1.63;;
33830;SDS011;20137;48.834;8.732;2023-04-25T12:15:19;2.38;;;1.55;;
33830;SDS011;20137;48.834;8.732;2023-04-25T12:17:50;3.15;;;2.25;;
33830;SDS011;20137;48.834;8.732;2023-04-25T12:20:18;3.97;;;2.97;;
33830;SDS011;20137;48.834;8.732;2023-04-25T12:22:48;3.70;;;2.38;;
33830;SDS011;20137;48.834;8.732;2023-04-25T12:30:52;9.85;;;4.70;;
33830;SDS011;20137;48.834;8.732;2023-04-25T12:33:22;9.85;;;5.30;;
33830;SDS011;20137;48.834;8.732;2023-04-25T12:35:47;8.15;;;5.40;;
33830;SDS011;20137;48.834;8.732;2023-04-25T12:38:23;10.98;;;6.05;;
33830;SDS011;20137;48.834;8.732;2023-04-25T12:40:54;10.90;;;6.10;;
33830;SDS011;20137;48.834;8.732;2023-04-25T12:43:20;11.40;;;7.75;;
33830;SDS011;20137;48.834;8.732;2023-04-25T12:45:50;10.52;;;7.03;;
33830;SDS011;20137;48.834;8.732;2023-04-25T12:48:16;12.40;;;6.95;;
33830;SDS011;20137;48.834;8.732;2023-04-25T12:50:43;10.48;;;7.78;;
33830;SDS011;20137;48.834;8.732;2023-04-25T12:53:09;11.65;;;7.68;;
33830;SDS011;20137;48.834;8.732;2023-04-25T12:55:35;14.13;;;8.23;;
33830;SDS011;20137;48.834;8.732;2023-04-25T12:58:00;10.27;;;6.88;;
33830;SDS011;20137;48.834;8.732;2023-04-25T13:00:26;11.73;;;7.25;;
33830;SDS011;20137;48.834;8.732;2023-04-25T13:02:52;11.60;;;7.72;;
33830;SDS011;20137;48.834;8.732;2023-04-25T13:05:18;9.95;;;6.78;;
33830;SDS011;20137;48.834;8.732;2023-04-25T13:07:43;10.95;;;6.80;;
33830;SDS011;20137;48.834;8.732;2023-04-25T13:10:09;10.48;;;6.57;;
33830;SDS011;20137;48.834;8.732;2023-04-25T13:12:35;13.02;;;5.80;;
33830;SDS011;20137;48.834;8.732;2023-04-25T13:15:01;8.93;;;5.80;;
33830;SDS011;20137;48.834;8.732;2023-04-25T13:17:26;8.90;;;5.45;;
33830;SDS011;20137;48.834;8.732;2023-04-25T13:19:52;9.20;;;5.57;;
33830;SDS011;20137;48.834;8.732;2023-04-25T13:22:18;8.23;;;5.65;;
33830;SDS011;20137;48.834;8.732;2023-04-25T13:24:45;9.68;;;5.68;;
33830;SDS011;20137;48.834;8.732;2023-04-25T13:27:11;7.43;;;4.70;;
33830;SDS011;20137;48.834;8.732;2023-04-25T13:29:38;6.75;;;4.88;;
33830;SDS011;20137;48.834;8.732;2023-04-25T13:32:05;8.20;;;4.65;;
33830;SDS011;20137;48.834;8.732;2023-04-25T13:34:31;7.75;;;4.85;;
33830;SDS011;20137;48.834;8.732;2023-04-25T13:36:58;8.35;;;4.93;;
33830;SDS011;20137;48.834;8.732;2023-04-25T13:39:23;7.25;;;4.85;;
33830;SDS011;20137;48.834;8.732;2023-04-25T13:41:49;10.13;;;6.18;;
33830;SDS011;20137;48.834;8.732;2023-04-25T13:44:15;10.55;;;6.85;;
33830;SDS011;20137;48.834;8.732;2023-04-25T13:46:41;10.80;;;7.00;;
33830;SDS011;20137;48.834;8.732;2023-04-25T13:49:06;9.50;;;4.80;;
33830;SDS011;20137;48.834;8.732;2023-04-25T13:51:32;8.35;;;5.20;;
33830;SDS011;20137;48.834;8.732;2023-04-25T13:53:58;10.05;;;4.30;;
33830;SDS011;20137;48.834;8.732;2023-04-25T13:56:24;9.60;;;4.30;;
33830;SDS011;20137;48.834;8.732;2023-04-25T13:58:50;4.30;;;3.55;;
33830;SDS011;20137;48.834;8.732;2023-04-25T14:01:16;5.03;;;3.50;;
33830;SDS011;20137;48.834;8.732;2023-04-25T14:03:42;4.45;;;2.85;;
33830;SDS011;20137;48.834;8.732;2023-04-25T14:06:09;3.75;;;3.05;;
33830;SDS011;20137;48.834;8.732;2023-04-25T14:08:36;4.63;;;2.22;;
33830;SDS011;20137;48.834;8.732;2023-04-25T14:11:02;4.55;;;3.13;;
33830;SDS011;20137;48.834;8.732;2023-04-25T14:13:28;5.10;;;3.13;;
33830;SDS011;20137;48.834;8.732;2023-04-25T14:15:54;5.72;;;2.70;;
33830;SDS011;20137;48.834;8.732;2023-04-25T14:18:20;3.13;;;2.25;;
33830;SDS011;20137;48.834;8.732;2023-04-25T14:20:45;4.63;;;2.10;;
33830;SDS011;20137;48.834;8.732;2023-04-25T14:23:13;3.50;;;1.63;;
33830;SDS011;20137;48.834;8.732;2023-04-25T14:25:38;2.80;;;1.90;;
33830;SDS011;20137;48.834;8.732;2023-04-25T14:28:05;2.72;;;1.95;;
33830;SDS011;20137;48.834;8.732;2023-04-25T14:30:31;3.17;;;1.88;;
33830;SDS011;20137;48.834;8.732;2023-04-25T14:32:56;2.90;;;1.88;;
33830;SDS011;20137;48.834;8.732;2023-04-25T14:35:22;3.03;;;1.83;;
33830;SDS011;20137;48.834;8.732;2023-04-25T14:37:48;4.20;;;2.67;;
33830;SDS011;20137;48.834;8.732;2023-04-25T14:40:13;3.90;;;2.10;;
33830;SDS011;20137;48.834;8.732;2023-04-25T14:42:40;2.03;;;1.83;;
33830;SDS011;20137;48.834;8.732;2023-04-25T14:45:07;3.70;;;2.45;;
33830;SDS011;20137;48.834;8.732;2023-04-25T14:47:34;8.13;;;2.80;;
33830;SDS011;20137;48.834;8.732;2023-04-25T14:50:02;4.10;;;3.20;;
33830;SDS011;20137;48.834;8.732;2023-04-25T14:52:29;3.75;;;2.90;;
33830;SDS011;20137;48.834;8.732;2023-04-25T14:54:56;9.68;;;5.55;;